createdAt,value
2022-10-19T00:01:19.410Z,12.50
2022-10-19T00:06:25.872Z,12.40
2022-10-19T00:08:55.655Z,12.30
2022-10-19T00:11:24.771Z,12.30
2022-10-19T00:13:56.251Z,12.20
2022-10-19T00:16:25.802Z,12.20
2022-10-19T00:18:57.889Z,12.10
2022-10-19T00:21:26.773Z,12.20
2022-10-19T00:23:55.417Z,12.20
2022-10-19T00:26:23.935Z,12.20
2022-10-19T00:28:55.956Z,12.20
2022-10-19T00:31:24.539Z,12.30
2022-10-19T00:33:53.579Z,12.30
2022-10-19T00:36:24.208Z,12.30
2022-10-19T00:38:53.501Z,12.30
2022-10-19T00:41:23.143Z,12.40
2022-10-19T00:43:59.633Z,12.40
2022-10-19T00:46:29.289Z,12.40
2022-10-19T00:49:02.154Z,12.40
2022-10-19T00:51:33.761Z,12.40
2022-10-19T00:54:03.336Z,12.40
2022-10-19T00:56:31.728Z,12.50
2022-10-19T00:59:04.067Z,12.50
2022-10-19T01:01:33.976Z,12.50
2022-10-19T01:04:04.116Z,12.50
2022-10-19T01:06:33.988Z,12.50
2022-10-19T01:09:02.579Z,12.50
2022-10-19T01:11:40.893Z,12.50
2022-10-19T01:14:22.985Z,12.50
2022-10-19T01:16:58.162Z,12.50
2022-10-19T01:19:46.206Z,12.40
2022-10-19T01:22:28.018Z,12.40
2022-10-19T01:25:04.798Z,12.40
2022-10-19T01:27:51.834Z,12.40
2022-10-19T01:30:33.279Z,12.40
2022-10-19T01:33:23.301Z,12.40
2022-10-19T01:35:59.600Z,12.40
2022-10-19T01:38:33.818Z,12.40
2022-10-19T01:41:18.829Z,12.40
2022-10-19T01:43:53.561Z,12.40
2022-10-19T01:46:31.327Z,12.40
2022-10-19T01:49:04.451Z,12.50
2022-10-19T01:51:36.793Z,12.50
2022-10-19T01:54:10.497Z,12.50
2022-10-19T01:56:42.290Z,12.50
2022-10-19T01:59:12.613Z,12.50
2022-10-19T02:01:46.322Z,12.50
2022-10-19T02:04:18.967Z,12.50
2022-10-19T02:06:47.685Z,12.50
2022-10-19T02:09:18.333Z,12.50
2022-10-19T02:11:49.729Z,12.50
2022-10-19T02:14:23.351Z,12.50
2022-10-19T02:16:58.463Z,12.50
2022-10-19T02:19:27.208Z,12.50
2022-10-19T02:21:55.884Z,12.50
2022-10-19T02:24:24.178Z,12.50
2022-10-19T02:26:53.850Z,12.50
2022-10-19T02:29:22.460Z,12.50
2022-10-19T02:31:52.390Z,12.50
2022-10-19T02:34:20.871Z,12.50
2022-10-19T02:36:49.417Z,12.50
2022-10-19T02:39:18.011Z,12.50
2022-10-19T02:41:50.976Z,12.50
2022-10-19T02:44:28.684Z,12.50
2022-10-19T02:47:03.550Z,12.50
2022-10-19T02:49:35.188Z,12.50
2022-10-19T02:52:07.120Z,12.40
2022-10-19T02:54:35.838Z,12.40
2022-10-19T02:57:14.764Z,12.40
2022-10-19T02:59:42.967Z,12.30
2022-10-19T03:02:12.921Z,12.30
2022-10-19T03:04:41.824Z,12.30
2022-10-19T03:07:11.558Z,12.20
2022-10-19T03:09:39.997Z,12.30
2022-10-19T03:12:08.446Z,12.20
2022-10-19T03:14:36.705Z,12.20
2022-10-19T03:17:06.048Z,12.20
2022-10-19T03:19:36.504Z,12.30
2022-10-19T03:22:05.684Z,12.30
2022-10-19T03:24:34.433Z,12.30
2022-10-19T03:27:02.956Z,12.30
2022-10-19T03:29:31.195Z,12.30
2022-10-19T03:31:59.810Z,12.20
2022-10-19T03:34:28.433Z,12.30
2022-10-19T03:36:59.306Z,12.30
2022-10-19T03:39:27.646Z,12.30
2022-10-19T03:41:56.102Z,12.30
2022-10-19T03:44:24.307Z,12.30
2022-10-19T03:46:52.879Z,12.30
2022-10-19T03:49:21.232Z,12.30
2022-10-19T03:51:49.707Z,12.40
2022-10-19T03:54:20.660Z,12.30
2022-10-19T03:56:52.042Z,12.30
2022-10-19T03:59:20.293Z,12.40
2022-10-19T04:01:48.850Z,12.30
2022-10-19T04:04:19.031Z,12.40
2022-10-19T04:06:48.817Z,12.40
2022-10-19T04:09:21.240Z,12.40
2022-10-19T04:11:50.163Z,12.40
2022-10-19T04:14:31.713Z,12.40
2022-10-19T04:17:01.668Z,12.40
2022-10-19T04:19:30.074Z,12.30
2022-10-19T04:21:59.140Z,12.30
2022-10-19T04:24:29.472Z,12.30
2022-10-19T04:26:58.259Z,12.20
2022-10-19T04:29:29.934Z,12.20
2022-10-19T04:31:59.758Z,12.20
2022-10-19T04:34:28.475Z,12.10
2022-10-19T04:36:59.467Z,12.10
2022-10-19T04:39:29.278Z,12.10
2022-10-19T04:41:58.276Z,12.20
2022-10-19T04:44:26.741Z,12.20
2022-10-19T04:46:55.484Z,12.20
2022-10-19T04:49:23.968Z,12.20
2022-10-19T04:51:52.407Z,12.20
2022-10-19T04:54:20.901Z,12.20
2022-10-19T04:56:50.709Z,12.20
2022-10-19T04:59:18.987Z,12.20
2022-10-19T05:01:47.588Z,12.20
2022-10-19T05:04:15.857Z,12.20
2022-10-19T05:06:44.461Z,12.20
2022-10-19T05:09:12.927Z,12.20
2022-10-19T05:11:41.412Z,12.10
2022-10-19T05:14:11.022Z,12.10
2022-10-19T05:16:39.771Z,12.10
2022-10-19T05:19:08.067Z,12.00
2022-10-19T05:21:36.514Z,12.00
2022-10-19T05:24:05.192Z,12.00
2022-10-19T05:26:33.667Z,12.00
2022-10-19T05:29:04.429Z,12.00
2022-10-19T05:31:35.593Z,12.00
2022-10-19T05:34:05.044Z,12.10
2022-10-19T05:36:35.429Z,12.10
2022-10-19T05:39:06.144Z,12.10
2022-10-19T05:41:35.305Z,12.10
2022-10-19T05:44:04.855Z,12.20
2022-10-19T05:46:35.865Z,12.20
2022-10-19T05:49:04.522Z,12.20
2022-10-19T05:51:33.053Z,12.20
2022-10-19T05:54:01.533Z,12.30
2022-10-19T05:56:31.498Z,12.30
2022-10-19T05:59:01.554Z,12.40
2022-10-19T06:01:31.035Z,12.40
2022-10-19T06:04:02.146Z,12.40
2022-10-19T06:06:32.091Z,12.40
2022-10-19T06:09:01.033Z,12.40
2022-10-19T06:11:33.791Z,12.40
2022-10-19T06:14:04.634Z,12.50
2022-10-19T06:16:34.360Z,12.50
2022-10-19T06:19:05.109Z,12.50
2022-10-19T06:21:34.464Z,12.50
2022-10-19T06:24:05.402Z,12.50
2022-10-19T06:26:36.028Z,12.60
2022-10-19T06:29:06.058Z,12.60
2022-10-19T06:31:36.682Z,12.70
2022-10-19T06:34:06.504Z,12.80
2022-10-19T06:36:35.634Z,12.80
2022-10-19T06:39:05.259Z,12.90
2022-10-19T06:41:34.302Z,13.00
2022-10-19T06:44:02.739Z,13.10
2022-10-19T06:46:32.305Z,13.20
2022-10-19T06:49:02.712Z,13.30
2022-10-19T06:51:34.100Z,13.40
2022-10-19T06:54:02.907Z,13.40
2022-10-19T06:56:31.419Z,13.50
2022-10-19T06:59:00.295Z,13.50
2022-10-19T07:01:28.964Z,13.50
2022-10-19T07:03:57.740Z,13.50
2022-10-19T07:06:28.914Z,13.50
2022-10-19T07:08:58.532Z,13.40
2022-10-19T07:11:27.090Z,13.50
2022-10-19T07:13:55.913Z,13.40
2022-10-19T07:16:24.525Z,13.50
2022-10-19T07:18:54.069Z,13.40
2022-10-19T07:21:24.260Z,13.40
2022-10-19T07:23:53.135Z,13.40
2022-10-19T07:26:30.520Z,13.30
2022-10-19T07:28:58.849Z,13.30
2022-10-19T07:31:29.720Z,13.30
2022-10-19T07:33:59.704Z,13.30
2022-10-19T07:36:29.348Z,13.30
2022-10-19T07:38:58.458Z,13.30
2022-10-19T07:41:28.946Z,13.30
2022-10-19T07:43:57.868Z,13.30
2022-10-19T07:46:29.150Z,13.40
2022-10-19T07:48:57.471Z,13.50
2022-10-19T07:51:26.297Z,13.50
2022-10-19T07:53:54.972Z,13.50
2022-10-19T07:56:25.411Z,13.50
2022-10-19T07:58:56.624Z,13.60
2022-10-19T08:01:26.749Z,13.70
2022-10-19T08:04:43.214Z,13.80
2022-10-19T08:06:45.117Z,13.80
2022-10-19T08:09:33.329Z,13.90
2022-10-19T08:12:02.845Z,14.00
2022-10-19T08:14:32.832Z,14.10
2022-10-19T08:17:01.646Z,14.20
2022-10-19T08:19:30.261Z,14.30
2022-10-19T08:21:58.704Z,14.30
2022-10-19T08:24:26.921Z,14.40
2022-10-19T08:26:55.651Z,14.40
2022-10-19T08:29:25.598Z,14.50
2022-10-19T08:31:57.632Z,14.50
2022-10-19T08:34:26.063Z,14.50
2022-10-19T08:36:54.582Z,14.60
2022-10-19T08:39:23.046Z,14.70
2022-10-19T08:42:00.627Z,14.90
2022-10-19T08:44:48.258Z,15.20
2022-10-19T08:47:26.810Z,15.70
2022-10-19T08:49:55.966Z,16.00
2022-10-19T08:52:33.422Z,16.00
2022-10-19T08:55:06.134Z,15.90
2022-10-19T08:57:42.281Z,15.70
2022-10-19T09:00:16.304Z,15.50
2022-10-19T09:03:00.769Z,15.40
2022-10-19T09:05:36.972Z,15.20
2022-10-19T09:08:05.794Z,15.20
2022-10-19T09:10:37.485Z,15.10
2022-10-19T09:13:12.463Z,15.10
2022-10-19T09:15:43.214Z,15.10
2022-10-19T09:18:19.971Z,15.00
2022-10-19T09:20:50.505Z,15.00
2022-10-19T09:23:26.741Z,15.00
2022-10-19T09:25:57.322Z,15.10
2022-10-19T09:28:41.354Z,15.30
2022-10-19T09:31:16.628Z,15.50
2022-10-19T09:33:53.244Z,15.70
2022-10-19T09:36:27.567Z,15.70
2022-10-19T09:39:01.963Z,15.70
2022-10-19T09:41:30.616Z,15.60
2022-10-19T09:43:59.586Z,15.60
2022-10-19T09:46:37.031Z,15.60
2022-10-19T09:49:08.587Z,15.80
2022-10-19T09:51:50.379Z,15.80
2022-10-19T09:54:34.598Z,15.90
2022-10-19T09:57:03.775Z,15.90
2022-10-19T09:59:36.759Z,15.90
2022-10-19T10:02:20.723Z,15.90
2022-10-19T10:04:57.461Z,15.90
2022-10-19T10:07:33.959Z,15.90
2022-10-19T10:10:02.801Z,15.90
2022-10-19T10:12:31.528Z,15.90
2022-10-19T10:15:00.905Z,15.80
2022-10-19T10:17:32.006Z,15.70
2022-10-19T10:20:20.340Z,15.70
2022-10-19T10:22:56.934Z,15.70
2022-10-19T10:25:28.207Z,15.90
2022-10-19T10:28:00.661Z,16.00
2022-10-19T10:30:34.922Z,16.00
2022-10-19T10:33:13.321Z,15.90
2022-10-19T10:35:53.653Z,15.90
2022-10-19T10:38:27.280Z,15.80
2022-10-19T10:40:58.684Z,15.90
2022-10-19T10:43:31.813Z,15.90
2022-10-19T10:46:05.295Z,15.90
2022-10-19T10:48:37.473Z,16.00
2022-10-19T10:51:20.723Z,16.00
2022-10-19T10:53:49.562Z,16.10
2022-10-19T10:56:29.035Z,16.10
2022-10-19T10:59:01.681Z,16.10
2022-10-19T11:01:33.996Z,16.10
2022-10-19T11:04:05.931Z,16.10
2022-10-19T11:06:44.442Z,15.90
2022-10-19T11:09:19.400Z,15.80
2022-10-19T11:11:50.783Z,15.80
2022-10-19T11:14:33.768Z,15.70
2022-10-19T11:17:07.041Z,15.60
2022-10-19T11:19:37.720Z,15.70
2022-10-19T11:22:17.752Z,15.70
2022-10-19T11:24:59.249Z,15.70
2022-10-19T11:27:39.250Z,15.50
2022-10-19T11:30:13.832Z,15.50
2022-10-19T11:32:58.882Z,15.30
2022-10-19T11:35:39.469Z,15.20
2022-10-19T11:38:24.101Z,15.10
2022-10-19T11:41:16.786Z,14.90
2022-10-19T11:43:57.653Z,14.90
2022-10-19T11:46:32.103Z,14.80
2022-10-19T11:49:11.272Z,14.80
2022-10-19T11:51:45.928Z,14.80
2022-10-19T11:54:29.756Z,14.80
2022-10-19T11:57:06.437Z,14.80
2022-10-19T12:00:00.222Z,14.90
2022-10-19T12:03:10.279Z,14.90
2022-10-19T12:05:46.655Z,14.90
2022-10-19T12:08:30.519Z,14.90
2022-10-19T12:11:06.486Z,14.90
2022-10-19T12:13:41.809Z,14.80
2022-10-19T12:16:12.971Z,14.80
2022-10-19T12:18:45.899Z,14.70
2022-10-19T12:21:20.998Z,14.70
2022-10-19T12:23:50.450Z,14.60
2022-10-19T12:26:22.981Z,14.50
2022-10-19T12:28:54.868Z,14.50
2022-10-19T12:31:25.361Z,14.40
2022-10-19T12:34:02.443Z,14.30
2022-10-19T12:36:38.908Z,14.30
2022-10-19T12:39:14.336Z,14.20
2022-10-19T12:41:52.310Z,14.10
2022-10-19T12:44:35.411Z,14.10
2022-10-19T12:47:11.388Z,14.10
2022-10-19T12:49:50.391Z,14.10
2022-10-19T12:52:45.980Z,14.20
2022-10-19T12:55:35.669Z,14.20
2022-10-19T12:58:07.795Z,14.30
2022-10-19T13:00:38.798Z,14.30
2022-10-19T13:03:15.398Z,14.30
2022-10-19T13:05:43.872Z,14.30
2022-10-19T13:08:29.127Z,14.20
2022-10-19T13:11:10.062Z,14.20
2022-10-19T13:14:00.218Z,14.10
2022-10-19T13:16:42.411Z,14.10
2022-10-19T13:19:28.804Z,14.10
2022-10-19T13:22:29.584Z,14.10
2022-10-19T13:25:23.571Z,14.10
2022-10-19T13:27:52.801Z,14.20
2022-10-19T13:31:06.150Z,14.20
2022-10-19T13:33:50.895Z,14.30
2022-10-19T13:36:21.133Z,14.40
2022-10-19T13:39:15.399Z,14.40
2022-10-19T13:41:53.162Z,14.40
2022-10-19T13:44:27.974Z,14.20
2022-10-19T13:47:17.754Z,14.20
2022-10-19T13:50:04.314Z,14.00
2022-10-19T13:52:53.252Z,14.00
2022-10-19T13:56:06.109Z,13.90
2022-10-19T13:59:14.707Z,13.80
2022-10-19T14:01:56.789Z,13.70
2022-10-19T14:04:37.463Z,13.50
2022-10-19T14:07:12.846Z,13.40
2022-10-19T14:10:14.300Z,13.40
2022-10-19T14:12:45.190Z,13.20
2022-10-19T14:15:22.991Z,13.10
2022-10-19T14:17:51.439Z,13.00
2022-10-19T14:20:31.142Z,13.00
2022-10-19T14:22:59.948Z,13.10
2022-10-19T14:25:29.776Z,13.10
2022-10-19T14:28:01.800Z,13.10
2022-10-19T14:30:32.548Z,13.20
2022-10-19T14:33:02.699Z,13.30
2022-10-19T14:35:35.768Z,13.30
2022-10-19T14:38:06.208Z,13.30
2022-10-19T14:40:38.878Z,13.40
2022-10-19T14:43:21.874Z,13.40
2022-10-19T14:46:13.206Z,13.40
2022-10-19T14:48:45.341Z,13.40
2022-10-19T14:51:30.744Z,13.50
2022-10-19T14:54:04.480Z,13.50
2022-10-19T14:56:38.004Z,13.50
2022-10-19T14:59:16.847Z,13.50
2022-10-19T15:01:50.194Z,13.50
2022-10-19T15:04:21.518Z,13.50
2022-10-19T15:06:51.765Z,13.50
2022-10-19T15:09:37.135Z,13.40
2022-10-19T15:12:18.037Z,13.40
2022-10-19T15:14:48.426Z,13.30
2022-10-19T15:17:28.748Z,13.30
2022-10-19T15:19:59.996Z,13.30
2022-10-19T15:22:41.215Z,13.20
2022-10-19T15:25:29.163Z,13.20
2022-10-19T15:27:57.806Z,13.10
2022-10-19T15:30:29.193Z,13.10
2022-10-19T15:33:11.752Z,13.00
2022-10-19T15:35:41.904Z,13.00
2022-10-19T15:38:20.520Z,12.90
2022-10-19T15:40:49.418Z,12.80
2022-10-19T15:43:44.304Z,12.80
2022-10-19T15:46:28.419Z,12.70
2022-10-19T15:48:58.590Z,12.70
2022-10-19T15:51:45.317Z,12.60
2022-10-19T15:54:19.950Z,12.60
2022-10-19T15:56:52.927Z,12.50
2022-10-19T15:59:23.873Z,12.50
2022-10-19T16:01:53.760Z,12.50
2022-10-19T16:04:24.383Z,12.40
2022-10-19T16:06:52.705Z,12.30
2022-10-19T16:09:23.446Z,12.30
2022-10-19T16:11:56.708Z,12.20
2022-10-19T16:14:26.488Z,12.10
2022-10-19T16:16:55.782Z,12.10
2022-10-19T16:19:24.338Z,12.00
2022-10-19T16:21:52.600Z,12.00
2022-10-19T16:24:23.011Z,12.00
2022-10-19T16:26:51.330Z,11.90
2022-10-19T16:29:20.132Z,11.80
2022-10-19T16:31:48.395Z,11.80
2022-10-19T16:34:16.849Z,11.70
2022-10-19T16:36:45.166Z,11.70
2022-10-19T16:39:13.874Z,11.70
2022-10-19T16:41:44.999Z,11.60
2022-10-19T16:44:13.946Z,11.60
2022-10-19T16:46:42.280Z,11.50
2022-10-19T16:49:10.708Z,11.50
2022-10-19T16:51:39.567Z,11.40
2022-10-19T16:54:09.866Z,11.40
2022-10-19T16:56:43.360Z,11.30
2022-10-19T16:59:14.991Z,11.30
2022-10-19T17:01:44.896Z,11.30
2022-10-19T17:04:13.967Z,11.20
2022-10-19T17:06:42.732Z,11.20
2022-10-19T17:09:42.647Z,11.10
2022-10-19T17:11:59.831Z,11.10
2022-10-19T17:14:29.649Z,11.00
2022-10-19T17:16:57.940Z,11.00
2022-10-19T17:19:26.616Z,10.90
2022-10-19T17:21:57.674Z,10.90
2022-10-19T17:24:26.498Z,10.90
2022-10-19T17:26:55.045Z,10.80
2022-10-19T17:29:24.349Z,10.80
2022-10-19T17:31:54.041Z,10.70
2022-10-19T17:34:22.499Z,10.70
2022-10-19T17:36:50.799Z,10.60
2022-10-19T17:39:24.408Z,10.60
2022-10-19T17:41:55.973Z,10.60
2022-10-19T17:44:24.434Z,10.50
2022-10-19T17:46:54.558Z,10.50
2022-10-19T17:49:23.133Z,10.40
2022-10-19T17:51:53.673Z,10.30
2022-10-19T17:54:22.205Z,10.30
2022-10-19T17:56:50.607Z,10.20
2022-10-19T17:59:25.913Z,10.20
2022-10-19T18:02:04.916Z,10.10
2022-10-19T18:04:33.390Z,10.10
2022-10-19T18:07:01.741Z,10.00
2022-10-19T18:09:30.191Z,9.90
2022-10-19T18:11:59.390Z,9.90
2022-10-19T18:14:30.069Z,9.80
2022-10-19T18:16:58.555Z,9.80
2022-10-19T18:19:28.400Z,9.80
2022-10-19T18:21:56.606Z,9.70
2022-10-19T18:24:25.201Z,9.70
2022-10-19T18:26:53.746Z,9.60
2022-10-19T18:29:24.160Z,9.60
2022-10-19T18:31:53.134Z,9.60
2022-10-19T18:34:23.655Z,9.50
2022-10-19T18:36:54.325Z,9.50
2022-10-19T18:39:23.356Z,9.50
2022-10-19T18:41:54.461Z,9.40
2022-10-19T18:44:26.596Z,9.40
2022-10-19T18:46:57.216Z,9.40
2022-10-19T18:49:25.853Z,9.30
2022-10-19T18:51:56.140Z,9.30
2022-10-19T18:54:26.536Z,9.20
2022-10-19T18:56:55.331Z,9.20
2022-10-19T18:59:24.200Z,9.10
2022-10-19T19:01:53.133Z,9.10
2022-10-19T19:04:21.610Z,9.10
2022-10-19T19:06:49.936Z,9.10
2022-10-19T19:09:21.200Z,9.00
2022-10-19T19:11:50.099Z,9.00
2022-10-19T19:14:21.015Z,9.00
2022-10-19T19:16:49.609Z,9.00
2022-10-19T19:19:19.941Z,9.00
2022-10-19T19:21:49.834Z,9.00
2022-10-19T19:24:21.878Z,8.90
2022-10-19T19:26:53.521Z,8.90
2022-10-19T19:29:23.423Z,8.90
2022-10-19T19:31:53.471Z,8.80
2022-10-19T19:34:22.277Z,8.90
2022-10-19T19:36:50.854Z,8.80
2022-10-19T19:39:22.167Z,8.80
2022-10-19T19:41:51.267Z,8.80
2022-10-19T19:44:20.196Z,8.80
2022-10-19T19:46:48.556Z,8.80
2022-10-19T19:49:17.218Z,8.70
2022-10-19T19:51:45.510Z,8.70
2022-10-19T19:54:14.149Z,8.60
2022-10-19T19:56:43.840Z,8.60
2022-10-19T19:59:13.926Z,8.60
2022-10-19T20:01:42.564Z,8.50
2022-10-19T20:04:11.903Z,8.40
2022-10-19T20:06:41.455Z,8.40
2022-10-19T20:09:10.787Z,8.30
2022-10-19T20:11:42.441Z,8.30
2022-10-19T20:14:13.443Z,8.20
2022-10-19T20:16:41.884Z,8.20
2022-10-19T20:19:12.478Z,8.10
2022-10-19T20:21:41.549Z,8.20
2022-10-19T20:24:10.793Z,8.00
2022-10-19T20:26:39.329Z,8.00
2022-10-19T20:29:08.368Z,8.00
2022-10-19T20:31:40.604Z,7.90
2022-10-19T20:34:11.091Z,7.90
2022-10-19T20:36:39.898Z,7.80
2022-10-19T20:39:08.473Z,7.80
2022-10-19T20:41:37.048Z,7.80
2022-10-19T20:44:05.775Z,7.70
2022-10-19T20:46:34.582Z,7.70
2022-10-19T20:49:04.897Z,7.70
2022-10-19T20:51:36.776Z,7.70
2022-10-19T20:54:07.739Z,7.70
2022-10-19T20:56:38.493Z,7.60
2022-10-19T20:59:08.599Z,7.60
2022-10-19T21:01:39.126Z,7.50
2022-10-19T21:04:10.504Z,7.50
2022-10-19T21:06:40.009Z,7.50
2022-10-19T21:09:09.605Z,7.40
2022-10-19T21:11:41.262Z,7.40
2022-10-19T21:14:12.614Z,7.40
2022-10-19T21:16:41.380Z,7.40
2022-10-19T21:19:14.376Z,7.30
2022-10-19T21:21:45.153Z,7.20
2022-10-19T21:24:16.984Z,7.20
2022-10-19T21:26:46.095Z,7.20
2022-10-19T21:29:15.766Z,7.10
2022-10-19T21:31:48.639Z,7.10
2022-10-19T21:34:21.211Z,7.10
2022-10-19T21:36:49.873Z,7.00
2022-10-19T21:39:19.647Z,7.00
2022-10-19T21:41:48.574Z,7.00
2022-10-19T21:44:18.288Z,6.90
2022-10-19T21:46:48.932Z,6.80
2022-10-19T21:49:19.174Z,6.80
2022-10-19T21:51:49.847Z,6.80
2022-10-19T21:54:20.656Z,6.80
2022-10-19T21:56:49.941Z,6.70
2022-10-19T21:59:19.125Z,6.70
2022-10-19T22:01:47.491Z,6.70
2022-10-19T22:04:19.992Z,6.80
2022-10-19T22:06:49.117Z,6.70
2022-10-19T22:09:19.304Z,6.70
2022-10-19T22:11:48.097Z,6.70
2022-10-19T22:14:17.642Z,6.60
2022-10-19T22:16:46.322Z,6.60
2022-10-19T22:19:15.343Z,6.60
2022-10-19T22:21:44.982Z,6.60
2022-10-19T22:24:15.688Z,6.60
2022-10-19T22:26:46.452Z,6.60
2022-10-19T22:29:15.328Z,6.60
2022-10-19T22:31:44.028Z,6.60
2022-10-19T22:34:14.653Z,6.50
2022-10-19T22:36:44.723Z,6.50
2022-10-19T22:39:13.931Z,6.50
2022-10-19T22:41:42.246Z,6.50
2022-10-19T22:44:10.689Z,6.50
2022-10-19T22:46:38.865Z,6.40
2022-10-19T22:51:40.424Z,6.30
2022-10-19T22:54:10.312Z,6.30
2022-10-19T22:56:38.597Z,6.30
2022-10-19T22:59:07.719Z,6.30
2022-10-19T23:01:36.628Z,6.20
2022-10-19T23:04:05.185Z,6.20
2022-10-19T23:06:33.688Z,6.10
2022-10-19T23:09:02.086Z,6.10
2022-10-19T23:11:31.669Z,6.10
2022-10-19T23:14:00.157Z,6.10
2022-10-19T23:19:01.829Z,6.10
2022-10-19T23:21:30.156Z,6.00
2022-10-19T23:23:58.650Z,6.00
2022-10-19T23:26:27.059Z,6.00
2022-10-19T23:28:56.831Z,5.90
2022-10-19T23:31:26.616Z,5.90
2022-10-19T23:33:55.828Z,5.90
2022-10-19T23:36:26.854Z,5.80
2022-10-19T23:38:56.784Z,5.80
2022-10-19T23:41:25.591Z,5.80
2022-10-19T23:43:54.169Z,5.80
2022-10-19T23:46:23.811Z,5.70
2022-10-19T23:48:52.540Z,5.70
2022-10-19T23:51:22.378Z,5.70
2022-10-19T23:53:52.944Z,5.70
2022-10-19T23:56:23.127Z,5.70
2022-10-19T23:58:52.592Z,5.60
